TAF and METAR

METAR for Carlos Ibanez Del Campo International Airport

SCCI 181300Z 24018KT 9999 FEW040 SCT090 06/03 Q0996 RESHRA NOSIG
Report created 18. apr 15:00
wind 18 knots from WSW (240°) visibility > 10km some clouds (~25% cover) at 4000 feet scattered clouds (~50% cover) at 9000 feet Temperature 6° with dewpoint at 3° (Humidity 81.06%) Pressure 996 hPa

TAF for Carlos Ibanez Del Campo International Airport

TAF SCCI 181050Z 1812/1912 24020G30KT 9999 SCT015 BKN040 TN07/1812Z TX09/1818Z BECMG 1814/1816 22015KT 8000 -SHRA BKN020 BECMG 1823/1901 27015KT BECMG 1906/1908 27020G30KT
Report created 18. apr 12:50

between 18. apr 14:00 - 19. apr 14:00

wind 20 knots from WSW (240°) with gusts up to 30 knots visibility > 10km scattered clouds (~50% cover) at 1500 feet broken clouds (~75% cover) at 4000 feet Min temperature 07° expected today at around 14 o'clock
Carlos Ibanez Del Campo International Airport in Chile at 37m

Latest 5 airports